KIKK/IKK METAR and TAF weather

Enter ICAO airport designator
Station Type Date Time Source
KIKK METAR 2019/08/23 17:35 UTC NOAA

KIKK 231735Z AUTO 04010G15KT 10SM CLR 24/12 A3019 RMK AO2 T02400119


Station Type Date Time Source
KIKK Decoded METAR 2019/08/23 17:35 UTC NOAA

Station name not available
Aug 23, 2019 - 01:35 PM EDT / 2019.08.23 1735 UTC
Wind: from the NE (040 degrees) at 12 MPH (10 KT) gusting to 17 MPH (15 KT):0
Visibility: 10 mile(s):0
Sky conditions: clear
Temperature: 75.2 F (24.0 C)
Dew Point: 53.4 F (11.9 C)
Relative Humidity: 46%
Pressure (altimeter): 30.19 in. Hg (1022 hPa)
ob: KIKK 231735Z AUTO 04010G15KT 10SM CLR 24/12 A3019 RMK AO2 T02400119
cycle: 17

Station Type Date Time Source
KIKK TAF UTC NOAA

Error!

Example: see airport list